sensor_id;sensor_type;location;lat;lon;timestamp;pressure;altitude;pressure_sealevel;temperature;humidity
57024;BME280;42916;54.346;18.562;2023-07-31T00:00:49;99675.10;;;15.30;100.00
57024;BME280;42916;54.346;18.562;2023-07-31T00:03:26;99666.80;;;15.25;100.00
57024;BME280;42916;54.346;18.562;2023-07-31T00:05:52;99657.10;;;15.23;100.00
57024;BME280;42916;54.346;18.562;2023-07-31T00:08:18;99656.06;;;15.20;100.00
57024;BME280;42916;54.346;18.562;2023-07-31T00:10:44;99650.97;;;15.17;100.00
57024;BME280;42916;54.346;18.562;2023-07-31T00:13:10;99649.20;;;15.15;100.00
57024;BME280;42916;54.346;18.562;2023-07-31T00:15:36;99650.42;;;15.14;100.00
57024;BME280;42916;54.346;18.562;2023-07-31T00:18:02;99652.00;;;15.14;100.00
57024;BME280;42916;54.346;18.562;2023-07-31T00:20:28;99651.04;;;15.14;100.00
57024;BME280;42916;54.346;18.562;2023-07-31T00:22:54;99647.56;;;15.12;100.00
57024;BME280;42916;54.346;18.562;2023-07-31T00:25:20;99644.98;;;15.12;100.00
57024;BME280;42916;54.346;18.562;2023-07-31T00:27:46;99650.46;;;15.12;100.00
57024;BME280;42916;54.346;18.562;2023-07-31T00:30:12;99648.80;;;15.11;100.00
57024;BME280;42916;54.346;18.562;2023-07-31T00:32:38;99648.88;;;15.09;100.00
57024;BME280;42916;54.346;18.562;2023-07-31T00:35:05;99649.21;;;15.08;100.00
57024;BME280;42916;54.346;18.562;2023-07-31T00:37:31;99651.99;;;15.09;100.00
57024;BME280;42916;54.346;18.562;2023-07-31T00:39:57;99649.77;;;15.08;100.00
57024;BME280;42916;54.346;18.562;2023-07-31T00:42:24;99643.15;;;15.04;100.00
57024;BME280;42916;54.346;18.562;2023-07-31T00:44:50;99641.79;;;15.01;100.00
57024;BME280;42916;54.346;18.562;2023-07-31T00:47:17;99634.14;;;14.97;100.00
57024;BME280;42916;54.346;18.562;2023-07-31T00:49:43;99634.90;;;14.95;100.00
57024;BME280;42916;54.346;18.562;2023-07-31T00:52:10;99626.98;;;14.93;100.00
57024;BME280;42916;54.346;18.562;2023-07-31T00:54:36;99633.19;;;14.93;100.00
57024;BME280;42916;54.346;18.562;2023-07-31T00:57:02;99628.91;;;14.92;100.00
57024;BME280;42916;54.346;18.562;2023-07-31T00:59:29;99627.21;;;14.93;100.00
57024;BME280;42916;54.346;18.562;2023-07-31T01:01:55;99621.50;;;14.91;100.00
57024;BME280;42916;54.346;18.562;2023-07-31T01:04:21;99614.88;;;14.88;100.00
57024;BME280;42916;54.346;18.562;2023-07-31T01:09:29;99605.39;;;14.80;100.00
57024;BME280;42916;54.346;18.562;2023-07-31T01:12:03;99600.64;;;14.77;100.00
57024;BME280;42916;54.346;18.562;2023-07-31T01:14:30;99602.83;;;14.74;100.00
57024;BME280;42916;54.346;18.562;2023-07-31T01:16:56;99599.83;;;14.71;100.00
57024;BME280;42916;54.346;18.562;2023-07-31T01:19:24;99606.77;;;14.67;100.00
57024;BME280;42916;54.346;18.562;2023-07-31T01:27:30;99601.58;;;14.53;100.00
57024;BME280;42916;54.346;18.562;2023-07-31T01:30:11;99604.99;;;14.46;100.00
57024;BME280;42916;54.346;18.562;2023-07-31T01:32:43;99608.49;;;14.39;100.00
57024;BME280;42916;54.346;18.562;2023-07-31T01:35:10;99617.35;;;14.34;100.00
57024;BME280;42916;54.346;18.562;2023-07-31T01:37:36;99620.45;;;14.31;100.00
57024;BME280;42916;54.346;18.562;2023-07-31T01:40:04;99622.15;;;14.28;100.00
57024;BME280;42916;54.346;18.562;2023-07-31T01:42:30;99621.70;;;14.24;100.00
57024;BME280;42916;54.346;18.562;2023-07-31T01:44:56;99619.89;;;14.21;100.00
57024;BME280;42916;54.346;18.562;2023-07-31T01:47:23;99625.86;;;14.18;100.00
57024;BME280;42916;54.346;18.562;2023-07-31T01:49:49;99624.58;;;14.16;100.00
57024;BME280;42916;54.346;18.562;2023-07-31T01:52:15;99628.96;;;14.12;100.00
57024;BME280;42916;54.346;18.562;2023-07-31T01:54:41;99624.56;;;14.07;100.00
57024;BME280;42916;54.346;18.562;2023-07-31T01:57:08;99626.65;;;14.03;100.00
57024;BME280;42916;54.346;18.562;2023-07-31T01:59:34;99624.07;;;14.00;100.00
57024;BME280;42916;54.346;18.562;2023-07-31T02:02:00;99624.44;;;13.97;100.00
57024;BME280;42916;54.346;18.562;2023-07-31T02:04:26;99624.34;;;13.93;100.00
57024;BME280;42916;54.346;18.562;2023-07-31T02:06:52;99626.67;;;13.90;100.00
57024;BME280;42916;54.346;18.562;2023-07-31T02:09:18;99629.05;;;13.88;100.00
57024;BME280;42916;54.346;18.562;2023-07-31T02:11:44;99625.68;;;13.87;100.00
57024;BME280;42916;54.346;18.562;2023-07-31T02:14:10;99629.19;;;13.87;100.00
57024;BME280;42916;54.346;18.562;2023-07-31T02:16:36;99624.73;;;13.85;100.00
57024;BME280;42916;54.346;18.562;2023-07-31T02:19:02;99623.91;;;13.85;100.00
57024;BME280;42916;54.346;18.562;2023-07-31T02:21:28;99625.34;;;13.84;100.00
57024;BME280;42916;54.346;18.562;2023-07-31T02:23:54;99623.17;;;13.83;100.00
57024;BME280;42916;54.346;18.562;2023-07-31T02:26:20;99622.71;;;13.81;100.00
57024;BME280;42916;54.346;18.562;2023-07-31T02:28:46;99618.98;;;13.79;100.00
57024;BME280;42916;54.346;18.562;2023-07-31T02:31:12;99621.06;;;13.78;100.00
57024;BME280;42916;54.346;18.562;2023-07-31T02:33:39;99619.29;;;13.77;100.00
57024;BME280;42916;54.346;18.562;2023-07-31T02:36:05;99624.71;;;13.75;100.00
57024;BME280;42916;54.346;18.562;2023-07-31T02:38:31;99624.63;;;13.72;100.00
57024;BME280;42916;54.346;18.562;2023-07-31T02:40:57;99629.75;;;13.71;100.00
57024;BME280;42916;54.346;18.562;2023-07-31T02:43:23;99625.83;;;13.69;100.00
57024;BME280;42916;54.346;18.562;2023-07-31T02:45:53;99626.73;;;13.67;100.00
57024;BME280;42916;54.346;18.562;2023-07-31T02:48:19;99629.38;;;13.66;100.00
57024;BME280;42916;54.346;18.562;2023-07-31T02:50:47;99637.05;;;13.65;100.00
57024;BME280;42916;54.346;18.562;2023-07-31T02:53:14;99641.44;;;13.63;100.00
57024;BME280;42916;54.346;18.562;2023-07-31T02:55:40;99635.24;;;13.60;100.00
57024;BME280;42916;54.346;18.562;2023-07-31T02:58:07;99631.88;;;13.59;100.00
57024;BME280;42916;54.346;18.562;2023-07-31T03:00:33;99634.70;;;13.57;100.00
57024;BME280;42916;54.346;18.562;2023-07-31T03:02:59;99635.44;;;13.54;100.00
57024;BME280;42916;54.346;18.562;2023-07-31T03:05:25;99635.95;;;13.52;100.00
57024;BME280;42916;54.346;18.562;2023-07-31T03:07:51;99634.77;;;13.51;100.00
57024;BME280;42916;54.346;18.562;2023-07-31T03:10:17;99640.42;;;13.49;100.00
57024;BME280;42916;54.346;18.562;2023-07-31T03:12:46;99641.38;;;13.47;100.00
57024;BME280;42916;54.346;18.562;2023-07-31T03:15:13;99645.42;;;13.47;100.00
57024;BME280;42916;54.346;18.562;2023-07-31T03:17:39;99647.46;;;13.45;100.00
57024;BME280;42916;54.346;18.562;2023-07-31T03:20:06;99650.42;;;13.44;100.00
57024;BME280;42916;54.346;18.562;2023-07-31T03:22:32;99652.56;;;13.43;100.00
57024;BME280;42916;54.346;18.562;2023-07-31T03:24:58;99651.08;;;13.45;100.00
57024;BME280;42916;54.346;18.562;2023-07-31T03:27:24;99650.14;;;13.46;100.00
57024;BME280;42916;54.346;18.562;2023-07-31T03:29:50;99651.75;;;13.48;100.00
57024;BME280;42916;54.346;18.562;2023-07-31T03:32:17;99652.68;;;13.48;100.00
57024;BME280;42916;54.346;18.562;2023-07-31T03:34:43;99656.11;;;13.49;100.00
57024;BME280;42916;54.346;18.562;2023-07-31T03:37:09;99658.49;;;13.50;100.00
57024;BME280;42916;54.346;18.562;2023-07-31T03:39:36;99657.72;;;13.51;100.00
57024;BME280;42916;54.346;18.562;2023-07-31T03:42:02;99656.63;;;13.52;100.00
57024;BME280;42916;54.346;18.562;2023-07-31T03:44:28;99660.06;;;13.52;100.00
57024;BME280;42916;54.346;18.562;2023-07-31T03:46:55;99661.96;;;13.52;100.00
57024;BME280;42916;54.346;18.562;2023-07-31T03:49:21;99663.20;;;13.53;100.00
57024;BME280;42916;54.346;18.562;2023-07-31T03:51:47;99661.42;;;13.55;100.00
57024;BME280;42916;54.346;18.562;2023-07-31T03:54:13;99665.83;;;13.58;100.00
57024;BME280;42916;54.346;18.562;2023-07-31T03:56:39;99669.02;;;13.61;100.00
57024;BME280;42916;54.346;18.562;2023-07-31T03:59:06;99674.85;;;13.63;100.00
57024;BME280;42916;54.346;18.562;2023-07-31T04:01:32;99666.44;;;13.65;100.00
57024;BME280;42916;54.346;18.562;2023-07-31T04:03:58;99667.61;;;13.68;100.00
57024;BME280;42916;54.346;18.562;2023-07-31T04:06:24;99667.30;;;13.71;100.00
57024;BME280;42916;54.346;18.562;2023-07-31T04:08:50;99667.97;;;13.73;100.00
57024;BME280;42916;54.346;18.562;2023-07-31T04:11:16;99664.06;;;13.76;100.00
57024;BME280;42916;54.346;18.562;2023-07-31T04:13:42;99665.70;;;13.79;100.00
57024;BME280;42916;54.346;18.562;2023-07-31T04:16:08;99668.73;;;13.81;100.00
57024;BME280;42916;54.346;18.562;2023-07-31T04:18:34;99662.80;;;13.83;100.00
57024;BME280;42916;54.346;18.562;2023-07-31T04:21:00;99662.95;;;13.86;100.00
57024;BME280;42916;54.346;18.562;2023-07-31T04:23:28;99664.11;;;13.88;100.00
57024;BME280;42916;54.346;18.562;2023-07-31T04:25:54;99668.73;;;13.90;100.00
57024;BME280;42916;54.346;18.562;2023-07-31T04:28:20;99666.47;;;13.95;100.00
57024;BME280;42916;54.346;18.562;2023-07-31T04:30:47;99664.88;;;13.99;100.00
57024;BME280;42916;54.346;18.562;2023-07-31T04:33:13;99662.05;;;14.02;100.00
57024;BME280;42916;54.346;18.562;2023-07-31T04:35:39;99656.70;;;14.05;100.00
57024;BME280;42916;54.346;18.562;2023-07-31T04:38:05;99659.23;;;14.08;100.00
57024;BME280;42916;54.346;18.562;2023-07-31T04:40:31;99662.23;;;14.11;100.00
57024;BME280;42916;54.346;18.562;2023-07-31T04:42:57;99665.45;;;14.15;100.00
57024;BME280;42916;54.346;18.562;2023-07-31T04:45:23;99662.13;;;14.18;100.00
57024;BME280;42916;54.346;18.562;2023-07-31T04:47:49;99661.97;;;14.22;100.00
57024;BME280;42916;54.346;18.562;2023-07-31T04:50:15;99660.10;;;14.26;100.00
57024;BME280;42916;54.346;18.562;2023-07-31T04:52:41;99661.06;;;14.30;100.00
57024;BME280;42916;54.346;18.562;2023-07-31T04:55:08;99656.50;;;14.35;100.00
57024;BME280;42916;54.346;18.562;2023-07-31T04:57:34;99660.66;;;14.41;100.00
57024;BME280;42916;54.346;18.562;2023-07-31T05:00:00;99663.07;;;14.44;100.00
57024;BME280;42916;54.346;18.562;2023-07-31T05:02:27;99669.24;;;14.49;100.00
57024;BME280;42916;54.346;18.562;2023-07-31T05:04:53;99667.63;;;14.54;100.00
57024;BME280;42916;54.346;18.562;2023-07-31T05:07:19;99670.26;;;14.58;100.00
57024;BME280;42916;54.346;18.562;2023-07-31T05:09:45;99670.64;;;14.63;100.00
57024;BME280;42916;54.346;18.562;2023-07-31T05:12:12;99675.77;;;14.66;100.00
57024;BME280;42916;54.346;18.562;2023-07-31T05:14:38;99676.23;;;14.71;100.00
57024;BME280;42916;54.346;18.562;2023-07-31T05:17:04;99678.67;;;14.76;100.00
57024;BME280;42916;54.346;18.562;2023-07-31T05:19:30;99678.40;;;14.82;100.00
57024;BME280;42916;54.346;18.562;2023-07-31T05:21:56;99677.83;;;14.90;100.00
57024;BME280;42916;54.346;18.562;2023-07-31T05:24:22;99676.27;;;14.97;100.00
57024;BME280;42916;54.346;18.562;2023-07-31T05:26:48;99673.30;;;15.03;100.00
57024;BME280;42916;54.346;18.562;2023-07-31T05:29:14;99674.83;;;15.09;100.00
57024;BME280;42916;54.346;18.562;2023-07-31T05:31:40;99671.83;;;15.12;100.00
57024;BME280;42916;54.346;18.562;2023-07-31T05:34:06;99675.45;;;15.17;100.00
57024;BME280;42916;54.346;18.562;2023-07-31T05:36:32;99675.04;;;15.22;100.00
57024;BME280;42916;54.346;18.562;2023-07-31T05:38:58;99678.23;;;15.27;100.00
57024;BME280;42916;54.346;18.562;2023-07-31T05:41:24;99677.17;;;15.30;100.00
57024;BME280;42916;54.346;18.562;2023-07-31T05:43:50;99676.06;;;15.33;100.00
57024;BME280;42916;54.346;18.562;2023-07-31T05:46:17;99673.61;;;15.38;100.00
57024;BME280;42916;54.346;18.562;2023-07-31T05:48:43;99675.19;;;15.43;100.00
57024;BME280;42916;54.346;18.562;2023-07-31T05:51:09;99677.85;;;15.48;100.00
57024;BME280;42916;54.346;18.562;2023-07-31T05:53:35;99676.70;;;15.50;100.00
57024;BME280;42916;54.346;18.562;2023-07-31T05:56:04;99677.89;;;15.52;100.00
57024;BME280;42916;54.346;18.562;2023-07-31T05:58:30;99680.53;;;15.57;100.00
57024;BME280;42916;54.346;18.562;2023-07-31T06:00:56;99677.66;;;15.60;100.00
57024;BME280;42916;54.346;18.562;2023-07-31T06:03:22;99682.06;;;15.65;100.00
57024;BME280;42916;54.346;18.562;2023-07-31T06:05:48;99679.67;;;15.68;100.00
57024;BME280;42916;54.346;18.562;2023-07-31T06:08:14;99682.25;;;15.75;100.00
57024;BME280;42916;54.346;18.562;2023-07-31T06:10:40;99683.98;;;15.82;100.00
57024;BME280;42916;54.346;18.562;2023-07-31T06:13:06;99687.44;;;15.89;100.00
57024;BME280;42916;54.346;18.562;2023-07-31T06:15:33;99683.70;;;15.94;100.00
57024;BME280;42916;54.346;18.562;2023-07-31T06:17:59;99682.94;;;15.99;100.00
57024;BME280;42916;54.346;18.562;2023-07-31T06:20:28;99685.81;;;16.03;100.00
57024;BME280;42916;54.346;18.562;2023-07-31T06:22:54;99682.91;;;16.07;100.00
57024;BME280;42916;54.346;18.562;2023-07-31T06:25:20;99688.73;;;16.12;100.00
57024;BME280;42916;54.346;18.562;2023-07-31T06:27:46;99686.77;;;16.16;100.00
57024;BME280;42916;54.346;18.562;2023-07-31T06:30:13;99689.17;;;16.21;100.00
57024;BME280;42916;54.346;18.562;2023-07-31T06:32:39;99690.38;;;16.26;100.00
57024;BME280;42916;54.346;18.562;2023-07-31T06:35:06;99692.53;;;16.30;100.00
57024;BME280;42916;54.346;18.562;2023-07-31T06:37:33;99691.95;;;16.36;100.00
57024;BME280;42916;54.346;18.562;2023-07-31T06:39:59;99695.77;;;16.41;100.00
57024;BME280;42916;54.346;18.562;2023-07-31T06:42:25;99688.62;;;16.47;100.00
57024;BME280;42916;54.346;18.562;2023-07-31T06:44:51;99699.45;;;16.53;100.00
57024;BME280;42916;54.346;18.562;2023-07-31T06:47:17;99693.41;;;16.57;100.00
57024;BME280;42916;54.346;18.562;2023-07-31T06:49:43;99696.86;;;16.62;100.00
57024;BME280;42916;54.346;18.562;2023-07-31T06:52:09;99695.89;;;16.66;100.00
57024;BME280;42916;54.346;18.562;2023-07-31T06:54:37;99699.83;;;16.71;100.00
57024;BME280;42916;54.346;18.562;2023-07-31T06:57:03;99698.30;;;16.75;100.00
57024;BME280;42916;54.346;18.562;2023-07-31T06:59:29;99701.90;;;16.81;100.00
57024;BME280;42916;54.346;18.562;2023-07-31T07:01:55;99698.16;;;16.86;100.00
57024;BME280;42916;54.346;18.562;2023-07-31T07:04:21;99700.46;;;16.92;99.95
57024;BME280;42916;54.346;18.562;2023-07-31T07:06:47;99703.84;;;16.98;99.75
57024;BME280;42916;54.346;18.562;2023-07-31T07:09:13;99703.12;;;17.06;99.38
57024;BME280;42916;54.346;18.562;2023-07-31T07:11:39;99705.25;;;17.15;99.26
57024;BME280;42916;54.346;18.562;2023-07-31T07:14:06;99703.48;;;17.26;98.35
57024;BME280;42916;54.346;18.562;2023-07-31T07:16:32;99697.48;;;17.32;96.21
57024;BME280;42916;54.346;18.562;2023-07-31T07:18:58;99702.39;;;17.37;94.55
57024;BME280;42916;54.346;18.562;2023-07-31T07:21:24;99700.99;;;17.44;93.82
57024;BME280;42916;54.346;18.562;2023-07-31T07:23:50;99698.27;;;17.51;93.11
57024;BME280;42916;54.346;18.562;2023-07-31T07:26:16;99699.91;;;17.61;93.67
57024;BME280;42916;54.346;18.562;2023-07-31T07:28:42;99696.56;;;17.70;93.60
57024;BME280;42916;54.346;18.562;2023-07-31T07:31:08;99694.44;;;17.78;93.38
57024;BME280;42916;54.346;18.562;2023-07-31T07:33:34;99695.72;;;17.88;93.07
57024;BME280;42916;54.346;18.562;2023-07-31T07:36:01;99686.70;;;17.96;91.27
57024;BME280;42916;54.346;18.562;2023-07-31T07:38:27;99689.70;;;18.00;90.81
57024;BME280;42916;54.346;18.562;2023-07-31T07:40:54;99684.84;;;18.08;90.41
57024;BME280;42916;54.346;18.562;2023-07-31T07:43:20;99684.92;;;18.14;88.91
57024;BME280;42916;54.346;18.562;2023-07-31T07:45:46;99690.55;;;18.17;88.50
57024;BME280;42916;54.346;18.562;2023-07-31T07:48:12;99694.76;;;18.22;88.19
57024;BME280;42916;54.346;18.562;2023-07-31T07:50:38;99688.40;;;18.26;87.14
57024;BME280;42916;54.346;18.562;2023-07-31T07:53:05;99684.12;;;18.29;86.04
57024;BME280;42916;54.346;18.562;2023-07-31T07:55:31;99686.20;;;18.33;84.92
57024;BME280;42916;54.346;18.562;2023-07-31T07:57:57;99687.83;;;18.37;84.72
57024;BME280;42916;54.346;18.562;2023-07-31T08:00:23;99684.50;;;18.44;84.46
57024;BME280;42916;54.346;18.562;2023-07-31T08:02:49;99686.25;;;18.50;82.31
57024;BME280;42916;54.346;18.562;2023-07-31T08:05:15;99681.25;;;18.56;82.37
57024;BME280;42916;54.346;18.562;2023-07-31T08:07:43;99682.02;;;18.65;81.81
57024;BME280;42916;54.346;18.562;2023-07-31T08:10:09;99677.01;;;18.74;81.41
57024;BME280;42916;54.346;18.562;2023-07-31T08:12:35;99679.27;;;18.85;80.86
57024;BME280;42916;54.346;18.562;2023-07-31T08:15:01;99680.64;;;18.95;80.65
57024;BME280;42916;54.346;18.562;2023-07-31T08:17:28;99677.73;;;19.02;79.73
57024;BME280;42916;54.346;18.562;2023-07-31T08:19:54;99679.42;;;19.07;78.62
57024;BME280;42916;54.346;18.562;2023-07-31T08:22:21;99679.77;;;19.13;78.69
57024;BME280;42916;54.346;18.562;2023-07-31T08:24:48;99682.96;;;19.16;77.80
57024;BME280;42916;54.346;18.562;2023-07-31T08:27:14;99683.53;;;19.23;77.44
57024;BME280;42916;54.346;18.562;2023-07-31T08:29:40;99680.98;;;19.26;73.78
57024;BME280;42916;54.346;18.562;2023-07-31T08:32:06;99680.43;;;19.26;74.44
57024;BME280;42916;54.346;18.562;2023-07-31T08:34:32;99680.90;;;19.30;71.34
57024;BME280;42916;54.346;18.562;2023-07-31T08:36:58;99674.92;;;19.38;73.72
57024;BME280;42916;54.346;18.562;2023-07-31T08:39:24;99671.83;;;19.53;74.19
57024;BME280;42916;54.346;18.562;2023-07-31T08:41:50;99674.61;;;19.64;73.81
57024;BME280;42916;54.346;18.562;2023-07-31T08:44:17;99674.96;;;19.71;73.12
57024;BME280;42916;54.346;18.562;2023-07-31T08:46:44;99673.47;;;19.76;72.18
57024;BME280;42916;54.346;18.562;2023-07-31T08:49:11;99675.10;;;19.80;71.98
57024;BME280;42916;54.346;18.562;2023-07-31T08:51:38;99677.04;;;19.81;71.69
57024;BME280;42916;54.346;18.562;2023-07-31T08:54:05;99672.26;;;19.76;71.28
57024;BME280;42916;54.346;18.562;2023-07-31T08:56:35;99673.04;;;19.73;71.04
57024;BME280;42916;54.346;18.562;2023-07-31T08:59:03;99669.48;;;19.81;70.28
57024;BME280;42916;54.346;18.562;2023-07-31T09:01:31;99671.19;;;19.88;69.84
57024;BME280;42916;54.346;18.562;2023-07-31T09:04:00;99668.86;;;19.96;70.20
57024;BME280;42916;54.346;18.562;2023-07-31T09:06:28;99664.56;;;20.01;69.08
57024;BME280;42916;54.346;18.562;2023-07-31T09:08:56;99656.88;;;20.06;68.21
57024;BME280;42916;54.346;18.562;2023-07-31T09:11:24;99667.18;;;20.14;67.05
57024;BME280;42916;54.346;18.562;2023-07-31T09:13:51;99663.13;;;20.26;67.45
57024;BME280;42916;54.346;18.562;2023-07-31T09:16:18;99661.88;;;20.37;66.60
57024;BME280;42916;54.346;18.562;2023-07-31T09:18:56;99662.14;;;20.51;66.80
57024;BME280;42916;54.346;18.562;2023-07-31T09:21:24;99655.45;;;20.72;67.23
57024;BME280;42916;54.346;18.562;2023-07-31T09:23:51;99659.80;;;20.88;66.00
57024;BME280;42916;54.346;18.562;2023-07-31T09:26:34;99655.17;;;20.96;65.22
57024;BME280;42916;54.346;18.562;2023-07-31T09:29:04;99654.70;;;21.00;64.57
57024;BME280;42916;54.346;18.562;2023-07-31T09:31:40;99658.02;;;21.00;62.97
57024;BME280;42916;54.346;18.562;2023-07-31T09:34:07;99661.66;;;20.93;63.07
57024;BME280;42916;54.346;18.562;2023-07-31T09:36:40;99658.42;;;20.96;63.27
57024;BME280;42916;54.346;18.562;2023-07-31T09:39:09;99649.27;;;20.96;61.97
57024;BME280;42916;54.346;18.562;2023-07-31T09:41:40;99653.98;;;20.93;61.83
57024;BME280;42916;54.346;18.562;2023-07-31T09:44:06;99648.80;;;21.01;62.14
57024;BME280;42916;54.346;18.562;2023-07-31T09:46:35;99648.88;;;21.15;62.26
57024;BME280;42916;54.346;18.562;2023-07-31T09:49:07;99647.23;;;21.33;62.24
57024;BME280;42916;54.346;18.562;2023-07-31T09:51:38;99644.87;;;21.50;61.15
57024;BME280;42916;54.346;18.562;2023-07-31T09:54:16;99646.07;;;21.60;59.74
57024;BME280;42916;54.346;18.562;2023-07-31T09:56:44;99635.48;;;21.76;60.43
57024;BME280;42916;54.346;18.562;2023-07-31T09:59:14;99637.66;;;21.91;59.56
57024;BME280;42916;54.346;18.562;2023-07-31T10:01:41;99634.20;;;21.92;57.95
57024;BME280;42916;54.346;18.562;2023-07-31T10:04:10;99635.13;;;21.97;57.28
57024;BME280;42916;54.346;18.562;2023-07-31T10:06:37;99636.31;;;21.99;55.92
57024;BME280;42916;54.346;18.562;2023-07-31T10:09:06;99630.91;;;21.91;55.01
57024;BME280;42916;54.346;18.562;2023-07-31T10:11:46;99624.70;;;21.84;55.55
57024;BME280;42916;54.346;18.562;2023-07-31T10:14:20;99622.27;;;21.95;56.07
57024;BME280;42916;54.346;18.562;2023-07-31T10:16:47;99621.80;;;22.15;55.45
57024;BME280;42916;54.346;18.562;2023-07-31T10:19:13;99619.58;;;22.40;55.82
57024;BME280;42916;54.346;18.562;2023-07-31T10:21:42;99610.33;;;22.66;55.03
57024;BME280;42916;54.346;18.562;2023-07-31T10:24:08;99610.52;;;22.90;53.29
57024;BME280;42916;54.346;18.562;2023-07-31T10:26:37;99611.41;;;22.88;51.58
57024;BME280;42916;54.346;18.562;2023-07-31T10:29:05;99606.97;;;22.87;52.90
57024;BME280;42916;54.346;18.562;2023-07-31T10:31:33;99604.86;;;22.89;52.61
57024;BME280;42916;54.346;18.562;2023-07-31T10:34:00;99602.64;;;22.76;52.55
57024;BME280;42916;54.346;18.562;2023-07-31T10:36:28;99608.59;;;22.58;51.75
57024;BME280;42916;54.346;18.562;2023-07-31T10:38:58;99606.43;;;22.39;52.29
57024;BME280;42916;54.346;18.562;2023-07-31T10:41:30;99602.55;;;22.26;52.56
57024;BME280;42916;54.346;18.562;2023-07-31T10:44:00;99602.69;;;22.23;52.72
57024;BME280;42916;54.346;18.562;2023-07-31T10:46:30;99603.23;;;22.27;53.29
57024;BME280;42916;54.346;18.562;2023-07-31T10:49:01;99598.02;;;22.36;52.25
57024;BME280;42916;54.346;18.562;2023-07-31T10:51:34;99601.52;;;22.36;52.17
57024;BME280;42916;54.346;18.562;2023-07-31T10:54:11;99602.43;;;22.44;52.24
57024;BME280;42916;54.346;18.562;2023-07-31T10:56:38;99600.22;;;22.52;52.66
57024;BME280;42916;54.346;18.562;2023-07-31T10:59:05;99605.36;;;22.56;52.19
57024;BME280;42916;54.346;18.562;2023-07-31T11:01:54;99595.05;;;22.58;52.06
57024;BME280;42916;54.346;18.562;2023-07-31T11:04:26;99595.41;;;22.63;51.47
57024;BME280;42916;54.346;18.562;2023-07-31T11:07:01;99595.92;;;22.77;51.84
57024;BME280;42916;54.346;18.562;2023-07-31T11:09:29;99592.71;;;23.00;51.65
57024;BME280;42916;54.346;18.562;2023-07-31T11:11:56;99589.49;;;23.24;51.07
57024;BME280;42916;54.346;18.562;2023-07-31T11:14:23;99588.21;;;23.44;50.00
57024;BME280;42916;54.346;18.562;2023-07-31T11:16:52;99589.64;;;23.59;49.93
57024;BME280;42916;54.346;18.562;2023-07-31T11:19:24;99595.48;;;23.76;49.60
57024;BME280;42916;54.346;18.562;2023-07-31T11:21:53;99592.16;;;23.98;49.91
57024;BME280;42916;54.346;18.562;2023-07-31T11:24:20;99592.59;;;24.15;49.76
57024;BME280;42916;54.346;18.562;2023-07-31T11:26:50;99595.36;;;24.15;48.68
57024;BME280;42916;54.346;18.562;2023-07-31T11:29:18;99600.09;;;24.02;48.09
57024;BME280;42916;54.346;18.562;2023-07-31T11:31:45;99598.05;;;23.84;48.15
57024;BME280;42916;54.346;18.562;2023-07-31T11:34:13;99593.68;;;23.69;48.49
57024;BME280;42916;54.346;18.562;2023-07-31T11:36:39;99595.38;;;23.67;48.64
57024;BME280;42916;54.346;18.562;2023-07-31T11:39:09;99593.89;;;23.57;48.61
57024;BME280;42916;54.346;18.562;2023-07-31T11:41:35;99594.43;;;23.39;49.01
57024;BME280;42916;54.346;18.562;2023-07-31T11:44:01;99592.22;;;23.28;49.53
57024;BME280;42916;54.346;18.562;2023-07-31T11:46:30;99584.30;;;23.16;49.50
57024;BME280;42916;54.346;18.562;2023-07-31T11:49:00;99580.21;;;23.10;50.45
57024;BME280;42916;54.346;18.562;2023-07-31T11:51:28;99583.25;;;23.11;50.77
57024;BME280;42916;54.346;18.562;2023-07-31T11:54:01;99587.06;;;23.08;51.13
57024;BME280;42916;54.346;18.562;2023-07-31T11:56:28;99579.79;;;23.06;51.20
57024;BME280;42916;54.346;18.562;2023-07-31T11:58:59;99579.22;;;23.08;51.60
57024;BME280;42916;54.346;18.562;2023-07-31T12:01:28;99576.79;;;23.16;51.76
57024;BME280;42916;54.346;18.562;2023-07-31T12:03:56;99579.96;;;23.23;51.18
57024;BME280;42916;54.346;18.562;2023-07-31T12:06:33;99583.96;;;23.15;51.14
57024;BME280;42916;54.346;18.562;2023-07-31T12:09:06;99577.24;;;23.19;51.48
57024;BME280;42916;54.346;18.562;2023-07-31T12:11:45;99574.60;;;23.27;51.57
57024;BME280;42916;54.346;18.562;2023-07-31T12:14:38;99571.76;;;23.35;51.48
57024;BME280;42916;54.346;18.562;2023-07-31T12:17:08;99572.45;;;23.38;50.89
57024;BME280;42916;54.346;18.562;2023-07-31T12:19:34;99569.06;;;23.32;50.29
57024;BME280;42916;54.346;18.562;2023-07-31T12:22:01;99568.74;;;23.21;50.70
57024;BME280;42916;54.346;18.562;2023-07-31T12:24:27;99576.13;;;23.15;50.91
57024;BME280;42916;54.346;18.562;2023-07-31T12:26:53;99568.38;;;23.06;50.69
57024;BME280;42916;54.346;18.562;2023-07-31T12:29:20;99572.02;;;23.06;51.01
57024;BME280;42916;54.346;18.562;2023-07-31T12:31:46;99572.69;;;23.11;51.01
57024;BME280;42916;54.346;18.562;2023-07-31T12:34:17;99575.23;;;23.14;51.53
57024;BME280;42916;54.346;18.562;2023-07-31T12:36:44;99571.70;;;23.06;51.19
57024;BME280;42916;54.346;18.562;2023-07-31T12:39:10;99576.00;;;22.85;51.60
57024;BME280;42916;54.346;18.562;2023-07-31T12:41:36;99580.75;;;22.69;52.11
57024;BME280;42916;54.346;18.562;2023-07-31T12:44:02;99570.61;;;22.56;52.60
57024;BME280;42916;54.346;18.562;2023-07-31T12:46:29;99562.58;;;22.46;52.83
57024;BME280;42916;54.346;18.562;2023-07-31T12:48:55;99561.02;;;22.37;53.30
57024;BME280;42916;54.346;18.562;2023-07-31T12:51:21;99559.69;;;22.29;53.66
57024;BME280;42916;54.346;18.562;2023-07-31T12:53:47;99558.95;;;22.21;54.15